sensor_id;sensor_type;location;lat;lon;timestamp;temperature;humidity
35746;DHT22;21870;42.812;74.628;2024-03-22T00:01:54;10.20;99.90
35746;DHT22;21870;42.812;74.628;2024-03-22T00:04:20;10.30;99.90
35746;DHT22;21870;42.812;74.628;2024-03-22T00:06:48;10.30;99.90
35746;DHT22;21870;42.812;74.628;2024-03-22T00:09:15;10.40;99.90
35746;DHT22;21870;42.812;74.628;2024-03-22T00:11:42;10.50;99.90
35746;DHT22;21870;42.812;74.628;2024-03-22T00:14:09;10.50;99.90
35746;DHT22;21870;42.812;74.628;2024-03-22T00:16:35;10.60;99.90
35746;DHT22;21870;42.812;74.628;2024-03-22T00:19:01;10.60;99.90
35746;DHT22;21870;42.812;74.628;2024-03-22T00:21:28;10.50;99.90
35746;DHT22;21870;42.812;74.628;2024-03-22T00:23:55;10.50;99.90
35746;DHT22;21870;42.812;74.628;2024-03-22T00:26:21;10.60;99.90
35746;DHT22;21870;42.812;74.628;2024-03-22T00:28:47;10.50;99.90
35746;DHT22;21870;42.812;74.628;2024-03-22T00:31:14;10.40;99.90
35746;DHT22;21870;42.812;74.628;2024-03-22T00:33:41;10.40;99.90
35746;DHT22;21870;42.812;74.628;2024-03-22T00:36:08;10.50;99.90
35746;DHT22;21870;42.812;74.628;2024-03-22T00:38:34;10.40;99.90
35746;DHT22;21870;42.812;74.628;2024-03-22T00:41:00;10.40;99.90
35746;DHT22;21870;42.812;74.628;2024-03-22T00:43:26;10.40;99.90
35746;DHT22;21870;42.812;74.628;2024-03-22T00:45:52;10.30;99.90
35746;DHT22;21870;42.812;74.628;2024-03-22T00:48:18;10.20;99.90
35746;DHT22;21870;42.812;74.628;2024-03-22T00:50:44;10.30;99.90
35746;DHT22;21870;42.812;74.628;2024-03-22T00:53:10;10.30;99.90
35746;DHT22;21870;42.812;74.628;2024-03-22T00:55:37;10.40;99.90
35746;DHT22;21870;42.812;74.628;2024-03-22T00:58:03;10.40;99.90
35746;DHT22;21870;42.812;74.628;2024-03-22T01:00:29;10.30;99.90
35746;DHT22;21870;42.812;74.628;2024-03-22T01:02:55;10.30;99.90
35746;DHT22;21870;42.812;74.628;2024-03-22T01:05:21;10.30;99.90
35746;DHT22;21870;42.812;74.628;2024-03-22T01:07:48;10.10;99.90
35746;DHT22;21870;42.812;74.628;2024-03-22T01:10:14;10.10;99.90
35746;DHT22;21870;42.812;74.628;2024-03-22T01:12:40;10.00;99.90
35746;DHT22;21870;42.812;74.628;2024-03-22T01:15:07;10.10;99.90
35746;DHT22;21870;42.812;74.628;2024-03-22T01:17:33;10.00;99.90
35746;DHT22;21870;42.812;74.628;2024-03-22T01:20:00;10.00;99.90
35746;DHT22;21870;42.812;74.628;2024-03-22T01:22:26;10.10;99.90
35746;DHT22;21870;42.812;74.628;2024-03-22T01:24:52;10.00;99.90
35746;DHT22;21870;42.812;74.628;2024-03-22T01:27:19;10.00;99.90
35746;DHT22;21870;42.812;74.628;2024-03-22T01:29:46;10.10;99.90
35746;DHT22;21870;42.812;74.628;2024-03-22T01:32:13;10.10;99.90
35746;DHT22;21870;42.812;74.628;2024-03-22T01:34:39;10.10;99.90
35746;DHT22;21870;42.812;74.628;2024-03-22T01:37:05;10.20;99.90
35746;DHT22;21870;42.812;74.628;2024-03-22T01:39:32;10.10;99.90
35746;DHT22;21870;42.812;74.628;2024-03-22T01:41:58;10.20;99.90
35746;DHT22;21870;42.812;74.628;2024-03-22T01:44:32;10.20;99.90
35746;DHT22;21870;42.812;74.628;2024-03-22T01:46:58;10.20;99.90
35746;DHT22;21870;42.812;74.628;2024-03-22T01:49:27;10.20;99.90
35746;DHT22;21870;42.812;74.628;2024-03-22T01:51:54;10.10;99.90
35746;DHT22;21870;42.812;74.628;2024-03-22T01:54:20;10.10;99.90
35746;DHT22;21870;42.812;74.628;2024-03-22T01:56:47;10.10;99.90
35746;DHT22;21870;42.812;74.628;2024-03-22T01:59:14;10.10;99.90
35746;DHT22;21870;42.812;74.628;2024-03-22T02:01:41;10.10;99.90
35746;DHT22;21870;42.812;74.628;2024-03-22T02:04:07;10.10;99.90
35746;DHT22;21870;42.812;74.628;2024-03-22T02:06:33;10.10;99.90
35746;DHT22;21870;42.812;74.628;2024-03-22T02:08:59;10.10;99.90
35746;DHT22;21870;42.812;74.628;2024-03-22T02:11:26;10.10;99.90
35746;DHT22;21870;42.812;74.628;2024-03-22T02:13:52;10.10;99.90
35746;DHT22;21870;42.812;74.628;2024-03-22T02:16:18;10.20;99.90
35746;DHT22;21870;42.812;74.628;2024-03-22T02:18:44;10.20;99.90
35746;DHT22;21870;42.812;74.628;2024-03-22T02:21:11;10.10;99.90
35746;DHT22;21870;42.812;74.628;2024-03-22T02:23:38;10.20;99.90
35746;DHT22;21870;42.812;74.628;2024-03-22T02:26:05;10.20;99.90
35746;DHT22;21870;42.812;74.628;2024-03-22T02:28:32;10.20;99.90
35746;DHT22;21870;42.812;74.628;2024-03-22T02:30:59;10.30;99.90
35746;DHT22;21870;42.812;74.628;2024-03-22T02:33:25;10.20;99.90
35746;DHT22;21870;42.812;74.628;2024-03-22T02:35:52;10.20;99.90
35746;DHT22;21870;42.812;74.628;2024-03-22T02:38:18;10.30;99.90
35746;DHT22;21870;42.812;74.628;2024-03-22T02:40:45;10.30;99.90
35746;DHT22;21870;42.812;74.628;2024-03-22T02:43:12;10.20;99.90
35746;DHT22;21870;42.812;74.628;2024-03-22T02:45:38;10.20;99.90
35746;DHT22;21870;42.812;74.628;2024-03-22T02:48:04;10.20;99.90
35746;DHT22;21870;42.812;74.628;2024-03-22T02:50:35;10.20;99.90
35746;DHT22;21870;42.812;74.628;2024-03-22T02:53:01;10.20;99.90
35746;DHT22;21870;42.812;74.628;2024-03-22T02:55:27;10.20;99.90
35746;DHT22;21870;42.812;74.628;2024-03-22T02:57:53;10.20;99.90
35746;DHT22;21870;42.812;74.628;2024-03-22T03:00:20;10.20;99.90
35746;DHT22;21870;42.812;74.628;2024-03-22T03:02:46;10.10;99.90
35746;DHT22;21870;42.812;74.628;2024-03-22T03:05:12;10.20;99.90
35746;DHT22;21870;42.812;74.628;2024-03-22T03:07:38;10.20;99.90
35746;DHT22;21870;42.812;74.628;2024-03-22T03:10:04;10.20;99.90
35746;DHT22;21870;42.812;74.628;2024-03-22T03:12:30;10.20;99.90
35746;DHT22;21870;42.812;74.628;2024-03-22T03:14:56;10.20;99.90
35746;DHT22;21870;42.812;74.628;2024-03-22T03:17:22;10.20;99.90
35746;DHT22;21870;42.812;74.628;2024-03-22T03:19:49;10.20;99.90
35746;DHT22;21870;42.812;74.628;2024-03-22T03:22:15;10.10;99.90
35746;DHT22;21870;42.812;74.628;2024-03-22T03:24:41;10.10;99.90
35746;DHT22;21870;42.812;74.628;2024-03-22T03:27:07;10.00;99.90
35746;DHT22;21870;42.812;74.628;2024-03-22T03:29:33;9.90;99.90
35746;DHT22;21870;42.812;74.628;2024-03-22T03:32:02;9.80;99.90
35746;DHT22;21870;42.812;74.628;2024-03-22T03:34:28;10.10;99.90
35746;DHT22;21870;42.812;74.628;2024-03-22T03:36:54;10.20;99.90
35746;DHT22;21870;42.812;74.628;2024-03-22T03:39:20;10.30;99.90
35746;DHT22;21870;42.812;74.628;2024-03-22T03:41:46;10.40;99.90
35746;DHT22;21870;42.812;74.628;2024-03-22T03:44:12;10.40;99.90
35746;DHT22;21870;42.812;74.628;2024-03-22T03:46:38;10.50;99.90
35746;DHT22;21870;42.812;74.628;2024-03-22T03:49:04;10.60;99.90
35746;DHT22;21870;42.812;74.628;2024-03-22T03:51:30;10.60;99.90
35746;DHT22;21870;42.812;74.628;2024-03-22T03:53:56;10.60;99.90
35746;DHT22;21870;42.812;74.628;2024-03-22T03:56:22;10.60;99.90
35746;DHT22;21870;42.812;74.628;2024-03-22T03:58:48;10.60;99.90
35746;DHT22;21870;42.812;74.628;2024-03-22T04:01:14;10.60;99.90
35746;DHT22;21870;42.812;74.628;2024-03-22T04:03:40;10.70;99.90
35746;DHT22;21870;42.812;74.628;2024-03-22T04:06:06;10.70;99.90
35746;DHT22;21870;42.812;74.628;2024-03-22T04:08:32;10.70;99.90
35746;DHT22;21870;42.812;74.628;2024-03-22T04:10:58;10.70;99.90
35746;DHT22;21870;42.812;74.628;2024-03-22T04:13:25;10.70;99.90
35746;DHT22;21870;42.812;74.628;2024-03-22T04:15:52;10.70;99.90
35746;DHT22;21870;42.812;74.628;2024-03-22T04:18:18;10.60;99.90
35746;DHT22;21870;42.812;74.628;2024-03-22T04:20:56;10.70;99.90
35746;DHT22;21870;42.812;74.628;2024-03-22T04:23:24;10.60;99.90
35746;DHT22;21870;42.812;74.628;2024-03-22T04:25:54;10.70;99.90
35746;DHT22;21870;42.812;74.628;2024-03-22T04:28:21;10.70;99.90
35746;DHT22;21870;42.812;74.628;2024-03-22T04:31:04;10.70;99.90
35746;DHT22;21870;42.812;74.628;2024-03-22T04:33:31;10.70;99.90
35746;DHT22;21870;42.812;74.628;2024-03-22T04:35:58;10.70;99.90
35746;DHT22;21870;42.812;74.628;2024-03-22T04:38:25;10.70;99.90
35746;DHT22;21870;42.812;74.628;2024-03-22T04:40:52;10.70;99.90
35746;DHT22;21870;42.812;74.628;2024-03-22T04:43:19;10.70;99.90
35746;DHT22;21870;42.812;74.628;2024-03-22T04:45:46;10.80;99.90
35746;DHT22;21870;42.812;74.628;2024-03-22T04:48:14;10.70;99.90
35746;DHT22;21870;42.812;74.628;2024-03-22T04:50:41;10.80;99.90
35746;DHT22;21870;42.812;74.628;2024-03-22T04:53:07;10.70;99.90
35746;DHT22;21870;42.812;74.628;2024-03-22T04:55:33;10.70;99.90
35746;DHT22;21870;42.812;74.628;2024-03-22T04:58:00;10.70;99.90
35746;DHT22;21870;42.812;74.628;2024-03-22T05:00:27;10.70;99.90
35746;DHT22;21870;42.812;74.628;2024-03-22T05:02:53;10.50;99.90
35746;DHT22;21870;42.812;74.628;2024-03-22T05:05:19;10.50;99.90
35746;DHT22;21870;42.812;74.628;2024-03-22T05:07:45;10.60;99.90
35746;DHT22;21870;42.812;74.628;2024-03-22T05:10:12;10.60;99.90
35746;DHT22;21870;42.812;74.628;2024-03-22T05:12:38;10.60;99.90
35746;DHT22;21870;42.812;74.628;2024-03-22T05:15:06;10.60;99.90
35746;DHT22;21870;42.812;74.628;2024-03-22T05:17:32;10.70;99.90
35746;DHT22;21870;42.812;74.628;2024-03-22T05:19:59;10.70;99.90
35746;DHT22;21870;42.812;74.628;2024-03-22T05:22:25;10.70;99.90
35746;DHT22;21870;42.812;74.628;2024-03-22T05:24:51;10.70;99.90
35746;DHT22;21870;42.812;74.628;2024-03-22T05:27:18;10.70;99.90
35746;DHT22;21870;42.812;74.628;2024-03-22T05:29:44;10.70;99.90
35746;DHT22;21870;42.812;74.628;2024-03-22T05:32:10;10.70;99.90
35746;DHT22;21870;42.812;74.628;2024-03-22T05:34:36;10.70;99.90
35746;DHT22;21870;42.812;74.628;2024-03-22T05:37:02;10.80;99.90
35746;DHT22;21870;42.812;74.628;2024-03-22T05:39:29;10.80;99.90
35746;DHT22;21870;42.812;74.628;2024-03-22T05:41:55;10.90;99.90
35746;DHT22;21870;42.812;74.628;2024-03-22T05:44:24;10.90;99.90
35746;DHT22;21870;42.812;74.628;2024-03-22T05:46:50;11.00;99.90
35746;DHT22;21870;42.812;74.628;2024-03-22T05:49:16;11.00;99.90
35746;DHT22;21870;42.812;74.628;2024-03-22T05:51:42;11.00;99.90
35746;DHT22;21870;42.812;74.628;2024-03-22T05:54:09;10.90;99.90
35746;DHT22;21870;42.812;74.628;2024-03-22T05:56:36;11.00;99.90
35746;DHT22;21870;42.812;74.628;2024-03-22T05:59:02;11.10;99.90
35746;DHT22;21870;42.812;74.628;2024-03-22T06:01:29;11.20;99.90
35746;DHT22;21870;42.812;74.628;2024-03-22T06:03:55;11.30;99.90
35746;DHT22;21870;42.812;74.628;2024-03-22T06:06:21;11.40;99.90
35746;DHT22;21870;42.812;74.628;2024-03-22T06:08:53;11.40;99.90
35746;DHT22;21870;42.812;74.628;2024-03-22T06:11:20;11.40;99.90
35746;DHT22;21870;42.812;74.628;2024-03-22T06:13:49;11.50;99.90
35746;DHT22;21870;42.812;74.628;2024-03-22T06:16:16;11.50;99.90
35746;DHT22;21870;42.812;74.628;2024-03-22T06:18:42;11.40;99.90
35746;DHT22;21870;42.812;74.628;2024-03-22T06:21:08;11.40;99.90
35746;DHT22;21870;42.812;74.628;2024-03-22T06:23:34;11.50;99.90
35746;DHT22;21870;42.812;74.628;2024-03-22T06:26:00;11.50;99.90
35746;DHT22;21870;42.812;74.628;2024-03-22T06:28:28;11.50;99.90
35746;DHT22;21870;42.812;74.628;2024-03-22T06:30:54;11.60;99.90
35746;DHT22;21870;42.812;74.628;2024-03-22T06:33:21;11.60;99.90
35746;DHT22;21870;42.812;74.628;2024-03-22T06:35:47;11.60;99.90
35746;DHT22;21870;42.812;74.628;2024-03-22T06:38:13;11.70;99.90
35746;DHT22;21870;42.812;74.628;2024-03-22T06:40:40;11.70;99.90
35746;DHT22;21870;42.812;74.628;2024-03-22T06:43:06;11.70;99.90
35746;DHT22;21870;42.812;74.628;2024-03-22T06:45:32;11.70;99.90
35746;DHT22;21870;42.812;74.628;2024-03-22T06:47:58;11.70;99.90
35746;DHT22;21870;42.812;74.628;2024-03-22T06:50:24;11.70;99.90
35746;DHT22;21870;42.812;74.628;2024-03-22T06:52:50;11.80;99.90
35746;DHT22;21870;42.812;74.628;2024-03-22T06:55:17;11.80;99.90
35746;DHT22;21870;42.812;74.628;2024-03-22T06:57:45;11.70;99.90
35746;DHT22;21870;42.812;74.628;2024-03-22T07:00:12;11.80;99.90
35746;DHT22;21870;42.812;74.628;2024-03-22T07:02:39;11.80;99.90
35746;DHT22;21870;42.812;74.628;2024-03-22T07:05:09;11.80;99.90
35746;DHT22;21870;42.812;74.628;2024-03-22T07:07:36;11.90;99.90
35746;DHT22;21870;42.812;74.628;2024-03-22T07:10:03;11.90;99.90
35746;DHT22;21870;42.812;74.628;2024-03-22T07:12:31;11.90;99.90
35746;DHT22;21870;42.812;74.628;2024-03-22T07:14:59;12.00;99.90
35746;DHT22;21870;42.812;74.628;2024-03-22T07:17:25;12.00;99.90
35746;DHT22;21870;42.812;74.628;2024-03-22T07:19:51;12.00;99.90
35746;DHT22;21870;42.812;74.628;2024-03-22T07:22:18;12.00;99.90
35746;DHT22;21870;42.812;74.628;2024-03-22T07:24:44;12.20;99.90
35746;DHT22;21870;42.812;74.628;2024-03-22T07:27:10;12.20;99.90
35746;DHT22;21870;42.812;74.628;2024-03-22T07:29:37;12.20;99.90
35746;DHT22;21870;42.812;74.628;2024-03-22T07:32:03;12.10;99.90
35746;DHT22;21870;42.812;74.628;2024-03-22T07:34:29;12.20;99.90
35746;DHT22;21870;42.812;74.628;2024-03-22T07:36:56;12.20;99.90
35746;DHT22;21870;42.812;74.628;2024-03-22T07:39:22;12.20;99.90
35746;DHT22;21870;42.812;74.628;2024-03-22T07:41:49;12.20;99.90
35746;DHT22;21870;42.812;74.628;2024-03-22T07:44:15;12.30;99.90
35746;DHT22;21870;42.812;74.628;2024-03-22T07:46:44;12.30;99.90
35746;DHT22;21870;42.812;74.628;2024-03-22T07:49:11;12.40;99.90
35746;DHT22;21870;42.812;74.628;2024-03-22T07:51:38;12.40;99.90
35746;DHT22;21870;42.812;74.628;2024-03-22T07:54:04;12.40;99.90
35746;DHT22;21870;42.812;74.628;2024-03-22T07:56:30;12.50;99.90
35746;DHT22;21870;42.812;74.628;2024-03-22T07:58:56;12.50;99.90
35746;DHT22;21870;42.812;74.628;2024-03-22T08:01:23;12.50;99.90
35746;DHT22;21870;42.812;74.628;2024-03-22T08:03:50;12.50;99.90
35746;DHT22;21870;42.812;74.628;2024-03-22T08:06:16;12.60;99.90
35746;DHT22;21870;42.812;74.628;2024-03-22T08:08:42;12.70;99.90
35746;DHT22;21870;42.812;74.628;2024-03-22T08:11:09;12.70;99.90
35746;DHT22;21870;42.812;74.628;2024-03-22T08:13:35;12.80;99.90
35746;DHT22;21870;42.812;74.628;2024-03-22T08:16:01;12.90;99.90
35746;DHT22;21870;42.812;74.628;2024-03-22T08:18:27;13.00;99.90
35746;DHT22;21870;42.812;74.628;2024-03-22T08:20:53;13.00;99.90
35746;DHT22;21870;42.812;74.628;2024-03-22T08:23:20;13.00;99.90
35746;DHT22;21870;42.812;74.628;2024-03-22T08:25:48;13.00;99.90
35746;DHT22;21870;42.812;74.628;2024-03-22T08:28:14;13.10;99.90
35746;DHT22;21870;42.812;74.628;2024-03-22T08:30:41;13.20;99.90
35746;DHT22;21870;42.812;74.628;2024-03-22T08:33:08;13.40;99.90
35746;DHT22;21870;42.812;74.628;2024-03-22T08:35:35;13.60;99.90
35746;DHT22;21870;42.812;74.628;2024-03-22T08:38:01;13.60;99.90
35746;DHT22;21870;42.812;74.628;2024-03-22T08:40:27;13.60;99.90
35746;DHT22;21870;42.812;74.628;2024-03-22T08:42:53;13.70;99.90
35746;DHT22;21870;42.812;74.628;2024-03-22T08:45:19;13.90;99.90
35746;DHT22;21870;42.812;74.628;2024-03-22T08:47:45;14.20;99.90
35746;DHT22;21870;42.812;74.628;2024-03-22T08:50:11;14.50;99.90
35746;DHT22;21870;42.812;74.628;2024-03-22T08:52:38;14.50;99.90
35746;DHT22;21870;42.812;74.628;2024-03-22T08:55:04;14.50;99.90
35746;DHT22;21870;42.812;74.628;2024-03-22T08:57:33;14.50;99.90
35746;DHT22;21870;42.812;74.628;2024-03-22T08:59:59;14.30;99.90
35746;DHT22;21870;42.812;74.628;2024-03-22T09:02:25;14.30;99.90
35746;DHT22;21870;42.812;74.628;2024-03-22T09:04:52;14.20;99.90
35746;DHT22;21870;42.812;74.628;2024-03-22T09:07:20;14.40;99.90
35746;DHT22;21870;42.812;74.628;2024-03-22T09:09:46;14.60;99.90
35746;DHT22;21870;42.812;74.628;2024-03-22T09:12:12;14.70;99.90
35746;DHT22;21870;42.812;74.628;2024-03-22T09:14:38;14.60;99.90
35746;DHT22;21870;42.812;74.628;2024-03-22T09:17:04;14.50;99.90
35746;DHT22;21870;42.812;74.628;2024-03-22T09:19:30;14.60;99.90
35746;DHT22;21870;42.812;74.628;2024-03-22T09:21:57;14.60;99.90
35746;DHT22;21870;42.812;74.628;2024-03-22T09:24:23;14.50;99.90
35746;DHT22;21870;42.812;74.628;2024-03-22T09:26:49;14.50;99.90
35746;DHT22;21870;42.812;74.628;2024-03-22T09:29:15;14.40;99.90
35746;DHT22;21870;42.812;74.628;2024-03-22T09:31:41;14.30;99.90
35746;DHT22;21870;42.812;74.628;2024-03-22T09:34:07;14.10;99.90
35746;DHT22;21870;42.812;74.628;2024-03-22T09:36:33;14.00;99.90
35746;DHT22;21870;42.812;74.628;2024-03-22T09:39:01;13.90;99.90
35746;DHT22;21870;42.812;74.628;2024-03-22T09:41:28;13.80;99.90
35746;DHT22;21870;42.812;74.628;2024-03-22T09:43:58;13.80;99.90
35746;DHT22;21870;42.812;74.628;2024-03-22T09:46:27;13.80;99.90
35746;DHT22;21870;42.812;74.628;2024-03-22T09:48:58;13.80;99.90
35746;DHT22;21870;42.812;74.628;2024-03-22T09:51:24;13.60;99.90
35746;DHT22;21870;42.812;74.628;2024-03-22T09:53:51;13.50;99.90
35746;DHT22;21870;42.812;74.628;2024-03-22T09:56:21;13.50;99.90
35746;DHT22;21870;42.812;74.628;2024-03-22T09:58:47;13.50;99.90
35746;DHT22;21870;42.812;74.628;2024-03-22T10:01:14;13.40;99.90
35746;DHT22;21870;42.812;74.628;2024-03-22T10:03:41;13.50;99.90
35746;DHT22;21870;42.812;74.628;2024-03-22T10:06:07;13.50;99.90
35746;DHT22;21870;42.812;74.628;2024-03-22T10:08:36;13.60;99.90
35746;DHT22;21870;42.812;74.628;2024-03-22T10:11:02;13.60;99.90
35746;DHT22;21870;42.812;74.628;2024-03-22T10:13:29;13.50;99.90
35746;DHT22;21870;42.812;74.628;2024-03-22T10:15:56;13.40;99.90
35746;DHT22;21870;42.812;74.628;2024-03-22T10:18:22;13.40;99.90
35746;DHT22;21870;42.812;74.628;2024-03-22T10:20:59;13.40;99.90
35746;DHT22;21870;42.812;74.628;2024-03-22T10:23:25;13.40;99.90
35746;DHT22;21870;42.812;74.628;2024-03-22T10:25:52;13.30;99.90
35746;DHT22;21870;42.812;74.628;2024-03-22T10:28:18;13.20;99.90
35746;DHT22;21870;42.812;74.628;2024-03-22T10:30:44;13.10;99.90
35746;DHT22;21870;42.812;74.628;2024-03-22T10:33:14;13.10;99.90
35746;DHT22;21870;42.812;74.628;2024-03-22T10:35:43;13.10;99.90
35746;DHT22;21870;42.812;74.628;2024-03-22T10:38:11;13.10;99.90
35746;DHT22;21870;42.812;74.628;2024-03-22T10:40:40;13.10;99.90
35746;DHT22;21870;42.812;74.628;2024-03-22T10:43:08;13.00;99.90
35746;DHT22;21870;42.812;74.628;2024-03-22T10:45:35;13.00;99.90
35746;DHT22;21870;42.812;74.628;2024-03-22T10:48:03;12.90;99.90
35746;DHT22;21870;42.812;74.628;2024-03-22T10:50:34;12.90;99.90
35746;DHT22;21870;42.812;74.628;2024-03-22T10:53:07;12.90;99.90
35746;DHT22;21870;42.812;74.628;2024-03-22T10:55:41;12.90;99.90
35746;DHT22;21870;42.812;74.628;2024-03-22T10:58:15;12.80;99.90
35746;DHT22;21870;42.812;74.628;2024-03-22T11:00:42;12.80;99.90
35746;DHT22;21870;42.812;74.628;2024-03-22T11:03:09;12.70;99.90
35746;DHT22;21870;42.812;74.628;2024-03-22T11:05:47;12.50;99.90
35746;DHT22;21870;42.812;74.628;2024-03-22T11:08:23;12.30;99.90
35746;DHT22;21870;42.812;74.628;2024-03-22T11:10:50;12.20;99.90
35746;DHT22;21870;42.812;74.628;2024-03-22T11:13:17;12.20;99.90
35746;DHT22;21870;42.812;74.628;2024-03-22T11:15:43;12.20;99.90
35746;DHT22;21870;42.812;74.628;2024-03-22T11:18:09;12.10;99.90
35746;DHT22;21870;42.812;74.628;2024-03-22T11:20:38;12.20;99.90
35746;DHT22;21870;42.812;74.628;2024-03-22T11:23:05;12.10;99.90
35746;DHT22;21870;42.812;74.628;2024-03-22T11:25:34;12.00;99.90
35746;DHT22;21870;42.812;74.628;2024-03-22T11:28:01;12.00;99.90
35746;DHT22;21870;42.812;74.628;2024-03-22T11:30:32;11.80;99.90
35746;DHT22;21870;42.812;74.628;2024-03-22T11:33:04;11.90;99.90
35746;DHT22;21870;42.812;74.628;2024-03-22T11:35:34;11.80;99.90
35746;DHT22;21870;42.812;74.628;2024-03-22T11:38:00;11.50;99.90
35746;DHT22;21870;42.812;74.628;2024-03-22T11:40:26;11.20;99.90
35746;DHT22;21870;42.812;74.628;2024-03-22T11:42:54;11.00;99.90
35746;DHT22;21870;42.812;74.628;2024-03-22T11:45:22;10.80;99.90
35746;DHT22;21870;42.812;74.628;2024-03-22T11:47:48;10.70;99.90
35746;DHT22;21870;42.812;74.628;2024-03-22T11:50:15;10.60;99.90
35746;DHT22;21870;42.812;74.628;2024-03-22T11:52:47;10.60;99.90
35746;DHT22;21870;42.812;74.628;2024-03-22T11:55:14;10.60;99.90
35746;DHT22;21870;42.812;74.628;2024-03-22T11:57:40;10.50;99.90
35746;DHT22;21870;42.812;74.628;2024-03-22T12:00:07;10.40;99.90
35746;DHT22;21870;42.812;74.628;2024-03-22T12:02:38;10.40;99.90
35746;DHT22;21870;42.812;74.628;2024-03-22T12:05:05;10.40;99.90
35746;DHT22;21870;42.812;74.628;2024-03-22T12:07:31;10.40;99.90
35746;DHT22;21870;42.812;74.628;2024-03-22T12:09:58;10.40;99.90
35746;DHT22;21870;42.812;74.628;2024-03-22T12:12:25;10.20;99.90
35746;DHT22;21870;42.812;74.628;2024-03-22T12:14:52;10.00;99.90
35746;DHT22;21870;42.812;74.628;2024-03-22T12:17:18;9.90;99.90
35746;DHT22;21870;42.812;74.628;2024-03-22T12:19:45;9.90;99.90
35746;DHT22;21870;42.812;74.628;2024-03-22T12:22:11;9.90;99.90
35746;DHT22;21870;42.812;74.628;2024-03-22T12:24:37;10.00;99.90
35746;DHT22;21870;42.812;74.628;2024-03-22T12:27:04;9.80;99.90
35746;DHT22;21870;42.812;74.628;2024-03-22T12:29:32;9.80;99.90
35746;DHT22;21870;42.812;74.628;2024-03-22T12:31:59;9.70;99.90
35746;DHT22;21870;42.812;74.628;2024-03-22T12:34:32;9.60;99.90
35746;DHT22;21870;42.812;74.628;2024-03-22T12:36:59;9.50;99.90
35746;DHT22;21870;42.812;74.628;2024-03-22T12:39:26;9.50;99.90
35746;DHT22;21870;42.812;74.628;2024-03-22T12:41:52;9.50;99.90
35746;DHT22;21870;42.812;74.628;2024-03-22T12:44:19;9.50;99.90
35746;DHT22;21870;42.812;74.628;2024-03-22T12:46:46;9.40;99.90
35746;DHT22;21870;42.812;74.628;2024-03-22T12:49:12;9.40;99.90
35746;DHT22;21870;42.812;74.628;2024-03-22T12:51:38;9.40;99.90
35746;DHT22;21870;42.812;74.628;2024-03-22T12:54:04;9.30;99.90
35746;DHT22;21870;42.812;74.628;2024-03-22T12:56:31;9.20;99.90
35746;DHT22;21870;42.812;74.628;2024-03-22T12:58:58;9.10;99.90
35746;DHT22;21870;42.812;74.628;2024-03-22T13:01:24;9.20;99.90
35746;DHT22;21870;42.812;74.628;2024-03-22T13:03:50;9.20;99.90
35746;DHT22;21870;42.812;74.628;2024-03-22T13:06:16;9.10;99.90
35746;DHT22;21870;42.812;74.628;2024-03-22T13:08:42;9.00;99.90
35746;DHT22;21870;42.812;74.628;2024-03-22T13:11:08;8.90;99.90
35746;DHT22;21870;42.812;74.628;2024-03-22T13:13:35;8.90;99.90
35746;DHT22;21870;42.812;74.628;2024-03-22T13:16:01;8.90;99.90
35746;DHT22;21870;42.812;74.628;2024-03-22T13:18:29;8.80;99.90
35746;DHT22;21870;42.812;74.628;2024-03-22T13:20:55;8.70;99.90
35746;DHT22;21870;42.812;74.628;2024-03-22T13:23:21;8.70;99.90
35746;DHT22;21870;42.812;74.628;2024-03-22T13:25:47;8.60;99.90
35746;DHT22;21870;42.812;74.628;2024-03-22T13:28:13;8.70;99.90
35746;DHT22;21870;42.812;74.628;2024-03-22T13:30:39;8.70;99.90
35746;DHT22;21870;42.812;74.628;2024-03-22T13:33:06;8.70;99.90
35746;DHT22;21870;42.812;74.628;2024-03-22T13:35:34;8.80;99.90
35746;DHT22;21870;42.812;74.628;2024-03-22T13:38:00;8.80;99.90
35746;DHT22;21870;42.812;74.628;2024-03-22T13:40:26;8.80;99.90
35746;DHT22;21870;42.812;74.628;2024-03-22T13:42:53;8.80;99.90
35746;DHT22;21870;42.812;74.628;2024-03-22T13:45:19;8.70;99.90
35746;DHT22;21870;42.812;74.628;2024-03-22T13:47:46;8.80;99.90
35746;DHT22;21870;42.812;74.628;2024-03-22T13:50:12;8.80;99.90
35746;DHT22;21870;42.812;74.628;2024-03-22T13:52:38;8.60;99.90
35746;DHT22;21870;42.812;74.628;2024-03-22T13:55:04;8.60;99.90
35746;DHT22;21870;42.812;74.628;2024-03-22T13:57:31;8.60;99.90
35746;DHT22;21870;42.812;74.628;2024-03-22T13:59:58;8.60;99.90
35746;DHT22;21870;42.812;74.628;2024-03-22T14:02:24;8.60;99.90
35746;DHT22;21870;42.812;74.628;2024-03-22T14:04:50;8.60;99.90
35746;DHT22;21870;42.812;74.628;2024-03-22T14:07:18;8.60;99.90
35746;DHT22;21870;42.812;74.628;2024-03-22T14:09:44;8.60;99.90
35746;DHT22;21870;42.812;74.628;2024-03-22T14:12:11;8.60;99.90
35746;DHT22;21870;42.812;74.628;2024-03-22T14:14:37;8.50;99.90
35746;DHT22;21870;42.812;74.628;2024-03-22T14:17:03;8.40;99.90
35746;DHT22;21870;42.812;74.628;2024-03-22T14:19:29;8.40;99.90
35746;DHT22;21870;42.812;74.628;2024-03-22T14:21:55;8.30;99.90
35746;DHT22;21870;42.812;74.628;2024-03-22T14:24:21;8.30;99.90
35746;DHT22;21870;42.812;74.628;2024-03-22T14:26:47;8.20;99.90
35746;DHT22;21870;42.812;74.628;2024-03-22T14:29:13;8.30;99.90
35746;DHT22;21870;42.812;74.628;2024-03-22T14:31:39;8.20;99.90
35746;DHT22;21870;42.812;74.628;2024-03-22T14:34:08;8.30;99.90
35746;DHT22;21870;42.812;74.628;2024-03-22T14:36:35;8.20;99.90
35746;DHT22;21870;42.812;74.628;2024-03-22T14:39:01;8.20;99.90
35746;DHT22;21870;42.812;74.628;2024-03-22T14:41:32;8.20;99.90
35746;DHT22;21870;42.812;74.628;2024-03-22T14:44:01;8.20;99.90
35746;DHT22;21870;42.812;74.628;2024-03-22T14:46:36;8.30;99.90
35746;DHT22;21870;42.812;74.628;2024-03-22T14:49:02;8.30;99.90
35746;DHT22;21870;42.812;74.628;2024-03-22T14:51:28;8.30;99.90
35746;DHT22;21870;42.812;74.628;2024-03-22T14:53:54;8.30;99.90
35746;DHT22;21870;42.812;74.628;2024-03-22T14:56:20;8.30;99.90
35746;DHT22;21870;42.812;74.628;2024-03-22T14:58:46;8.30;99.90
35746;DHT22;21870;42.812;74.628;2024-03-22T15:01:12;8.30;99.90
35746;DHT22;21870;42.812;74.628;2024-03-22T15:03:38;8.30;99.90
35746;DHT22;21870;42.812;74.628;2024-03-22T15:06:04;8.30;99.90
35746;DHT22;21870;42.812;74.628;2024-03-22T15:08:30;8.30;99.90
35746;DHT22;21870;42.812;74.628;2024-03-22T15:10:58;8.40;99.90
35746;DHT22;21870;42.812;74.628;2024-03-22T15:13:24;8.40;99.90
35746;DHT22;21870;42.812;74.628;2024-03-22T15:15:54;8.40;99.90
35746;DHT22;21870;42.812;74.628;2024-03-22T15:18:20;8.50;99.90